Aeroporto :
LOGIN :

Iscrizione | Disclaimer

   EN    FR    IT 

 










Sommario :    VFR   VFR Marginale   IFR   IFR Intensivo   IFR Molto Intensivo
Visibilità : 
Base nubi : 
>= 8 km
>= 3000ft
5 / 8 km
1000 / 3000 ft
1500m / 5 km
500 / 1000 ft
800 / 1500m
200 / 500 ft
< 800m
< 200 ft
Simboli :   Temporali  Nebbia  Neve Forte  Precipitazioni Forti  Vento > 20 kt
SIGMETs :   Varie  Temporali  Ghiacco  Turbolenza  Onda orograficha  Ceneri Vulcaniche






- Altitudine del aeroporto : 791 ft
- Codice IATA : KRK


EPKK - Krakow-Balice

ULTIMO METAR :
  • 202100Z VRB01KT 6000 NSC M02/M03 Q1020

METARs OBSOLETI :
  • 202030Z VRB01KT 5000 BR NSC M01/M02 Q1020
  • 202000Z VRB01KT 4500 BR NSC M01/M02 Q1020
  • 201930Z VRB01KT 5000 BR NSC M00/M01 Q1021
  • 201900Z VRB02KT 5000 BR NSC M01/M01 Q1021
  • 201830Z VRB02KT 8000 NSC 00/M01 Q1021

TAF TAF EPKK
Valido dal 20 a 18 ore il 21 a 18 ore UTC


201730Z 2018/2118 VRB02KT CAVOK
BECMG 2018/2020 2500 BR
TEMPO 2020/2102 0800 FZFG
BECMG 2107/2110 26015G30KT 4000 RA SNRA BR BKN008 BKN014
BECMG 2113/2115 25008KT 8000 NSW BKN020
TEMPO 2115/2118 25015G25KT 4000 SHRA BKN013CB



MetMap, La meteo Aeronautica in un colpo d'occhio ! - Copyright ORBIFLY Dicembre 2007 - Disclaimer

ORBIFLY MET'MAP TEAM :

Programmazione e sviluppo : Alexandra Zaïnal
Concezione : Baudouin d'Aumeries
Aiuto per la programmazione : Marc-Olivier Méhu
Supporto tecnico e logistico : Manuel Goepfert
Aiuto per la traduzione : Arnaldo La Scala

Contatto : metmap@orbifly.com




FONTI E CREDITI :

   NOAA